createdAt,value
2022-08-21T00:01:48.015Z,57.60
2022-08-21T00:04:20.888Z,55.00
2022-08-21T00:06:51.103Z,56.00
2022-08-21T00:09:20.475Z,54.90
2022-08-21T00:11:49.359Z,51.80
2022-08-21T00:14:18.254Z,52.90
2022-08-21T00:16:46.497Z,52.10
2022-08-21T00:19:14.699Z,54.20
2022-08-21T00:21:44.674Z,54.10
2022-08-21T00:24:13.293Z,53.30
2022-08-21T00:26:41.364Z,52.90
2022-08-21T00:29:09.466Z,54.30
2022-08-21T00:31:37.812Z,54.20
2022-08-21T00:34:06.200Z,54.90
2022-08-21T00:36:34.481Z,55.30
2022-08-21T00:39:05.257Z,53.90
2022-08-21T00:41:38.550Z,51.40
2022-08-21T00:44:09.151Z,51.70
2022-08-21T00:46:38.870Z,52.60
2022-08-21T00:49:07.892Z,51.70
2022-08-21T00:51:41.015Z,52.80
2022-08-21T00:54:18.371Z,53.30
2022-08-21T00:56:48.782Z,52.30
2022-08-21T00:59:18.327Z,52.00
2022-08-21T01:01:46.781Z,53.90
2022-08-21T01:04:15.948Z,52.70
2022-08-21T01:06:44.160Z,52.90
2022-08-21T01:09:14.156Z,53.50
2022-08-21T01:11:43.988Z,52.90
2022-08-21T01:14:13.109Z,52.70
2022-08-21T01:16:45.152Z,54.20
2022-08-21T01:19:13.878Z,53.20
2022-08-21T01:21:44.156Z,52.30
2022-08-21T01:24:13.289Z,52.70
2022-08-21T01:26:42.099Z,51.90
2022-08-21T01:29:17.086Z,51.90
2022-08-21T01:31:45.333Z,51.60
2022-08-21T01:34:13.829Z,54.20
2022-08-21T01:36:43.672Z,52.70
2022-08-21T01:39:11.736Z,53.60
2022-08-21T01:41:39.934Z,72.30
2022-08-21T01:44:08.039Z,53.80
2022-08-21T01:46:36.449Z,54.90
2022-08-21T01:49:05.162Z,55.00
2022-08-21T01:51:33.339Z,52.60
2022-08-21T01:54:02.809Z,53.30
2022-08-21T01:56:31.135Z,54.50
2022-08-21T01:58:59.286Z,54.80
2022-08-21T02:01:27.527Z,54.30
2022-08-21T02:03:55.864Z,54.60
2022-08-21T02:06:23.979Z,55.30
2022-08-21T02:08:52.242Z,55.70
2022-08-21T02:11:22.151Z,55.00
2022-08-21T02:13:50.330Z,53.70
2022-08-21T02:16:19.496Z,55.00
2022-08-21T02:18:48.418Z,55.00
2022-08-21T02:21:16.899Z,53.60
2022-08-21T02:23:45.155Z,55.40
2022-08-21T02:26:13.856Z,57.00
2022-08-21T02:28:43.661Z,55.20
2022-08-21T02:31:12.165Z,55.90
2022-08-21T02:33:41.035Z,56.80
2022-08-21T02:36:10.340Z,53.90
2022-08-21T02:38:40.357Z,56.00
2022-08-21T02:41:11.106Z,55.60
2022-08-21T02:43:39.247Z,55.20
2022-08-21T02:46:10.611Z,58.10
2022-08-21T02:48:39.436Z,55.50
2022-08-21T02:51:09.771Z,56.10
2022-08-21T02:53:38.705Z,55.10
2022-08-21T02:56:09.945Z,54.50
2022-08-21T02:58:41.181Z,55.20
2022-08-21T03:01:11.469Z,54.70
2022-08-21T03:03:42.020Z,54.90
2022-08-21T03:06:13.859Z,54.60
2022-08-21T03:08:42.803Z,55.90
2022-08-21T03:11:11.085Z,55.70
2022-08-21T03:13:42.676Z,57.60
2022-08-21T03:16:12.245Z,56.20
2022-08-21T03:18:40.862Z,59.70
2022-08-21T03:21:09.424Z,58.10
2022-08-21T03:23:37.555Z,75.40
2022-08-21T03:26:06.103Z,58.90
2022-08-21T03:28:36.077Z,58.10
2022-08-21T03:31:04.182Z,60.40
2022-08-21T03:33:33.875Z,60.60
2022-08-21T03:36:04.216Z,60.20
2022-08-21T03:38:35.097Z,59.30
2022-08-21T03:41:03.821Z,78.10
2022-08-21T03:43:32.582Z,59.30
2022-08-21T03:46:02.202Z,60.20
2022-08-21T03:48:30.596Z,58.90
2022-08-21T03:51:00.308Z,60.50
2022-08-21T03:53:31.126Z,61.30
2022-08-21T03:55:59.450Z,59.50
2022-08-21T03:58:29.636Z,61.40
2022-08-21T04:01:00.423Z,58.10
2022-08-21T04:03:30.083Z,57.80
2022-08-21T04:06:00.042Z,58.10
2022-08-21T04:08:28.257Z,59.50
2022-08-21T04:10:59.124Z,59.60
2022-08-21T04:13:29.171Z,58.90
2022-08-21T04:15:58.988Z,58.30
2022-08-21T04:18:27.121Z,58.30
2022-08-21T04:20:58.188Z,60.80
2022-08-21T04:23:28.762Z,59.20
2022-08-21T04:25:58.443Z,59.20
2022-08-21T04:28:29.172Z,59.30
2022-08-21T04:30:58.920Z,59.20
2022-08-21T04:33:27.674Z,62.30
2022-08-21T04:35:56.107Z,60.50
2022-08-21T04:38:24.333Z,60.10
2022-08-21T04:40:54.554Z,63.10
2022-08-21T04:43:24.431Z,60.10
2022-08-21T04:45:54.282Z,62.60
2022-08-21T04:48:25.078Z,61.00
2022-08-21T04:50:58.577Z,61.50
2022-08-21T04:53:32.529Z,62.70
2022-08-21T04:56:06.492Z,62.50
2022-08-21T04:58:35.634Z,63.50
2022-08-21T05:01:05.863Z,63.60
2022-08-21T05:03:36.737Z,63.40
2022-08-21T05:06:06.894Z,64.20
2022-08-21T05:08:36.027Z,83.60
2022-08-21T05:11:06.637Z,65.10
2022-08-21T05:13:34.793Z,67.10
2022-08-21T05:16:02.895Z,72.40
2022-08-21T05:18:31.062Z,73.20
2022-08-21T05:20:59.248Z,74.40
2022-08-21T05:23:27.667Z,73.00
2022-08-21T05:25:56.611Z,75.40
2022-08-21T05:28:26.889Z,75.10
2022-08-21T05:30:55.792Z,77.50
2022-08-21T05:33:23.987Z,74.30
2022-08-21T05:35:53.004Z,78.50
2022-08-21T05:38:21.268Z,91.90
2022-08-21T05:40:49.496Z,77.60
2022-08-21T05:43:17.957Z,76.80
2022-08-21T05:45:48.214Z,78.90
2022-08-21T05:48:18.507Z,79.20
2022-08-21T05:50:48.041Z,77.40
2022-08-21T05:53:18.411Z,79.40
2022-08-21T05:55:47.427Z,79.30
2022-08-21T05:58:16.680Z,80.50
2022-08-21T06:00:45.573Z,82.10
2022-08-21T06:03:18.097Z,84.70
2022-08-21T06:05:46.651Z,84.70
2022-08-21T06:08:15.353Z,87.50
2022-08-21T06:10:43.603Z,87.20
2022-08-21T06:13:12.678Z,84.80
2022-08-21T06:15:40.837Z,84.40
2022-08-21T06:18:08.976Z,88.20
2022-08-21T06:20:38.982Z,86.40
2022-08-21T06:23:07.595Z,85.10
2022-08-21T06:25:35.751Z,86.80
2022-08-21T06:28:04.991Z,89.00
2022-08-21T06:30:33.234Z,89.20
2022-08-21T06:33:01.422Z,90.80
2022-08-21T06:35:30.468Z,91.90
2022-08-21T06:38:00.381Z,90.60
2022-08-21T06:40:29.849Z,91.90
2022-08-21T06:42:59.593Z,91.70
2022-08-21T06:45:32.254Z,91.90
2022-08-21T06:48:00.928Z,93.40
2022-08-21T06:50:29.353Z,92.60
2022-08-21T06:53:05.831Z,93.70
2022-08-21T06:55:34.576Z,92.40
2022-08-21T06:58:02.992Z,94.00
2022-08-21T07:00:31.418Z,93.60
2022-08-21T07:03:00.178Z,93.60
2022-08-21T07:05:29.895Z,92.90
2022-08-21T07:07:58.787Z,93.30
2022-08-21T07:10:29.235Z,92.80
2022-08-21T07:13:00.839Z,93.30
2022-08-21T07:15:30.863Z,94.50
2022-08-21T07:17:59.615Z,93.20
2022-08-21T07:20:28.192Z,94.50
2022-08-21T07:22:57.112Z,94.30
2022-08-21T07:25:25.392Z,93.40
2022-08-21T07:27:55.433Z,94.50
2022-08-21T07:30:24.251Z,93.90
2022-08-21T07:32:52.681Z,92.90
2022-08-21T07:35:22.147Z,94.00
2022-08-21T07:37:50.703Z,91.30
2022-08-21T07:40:19.525Z,92.10
2022-08-21T07:42:51.105Z,91.00
2022-08-21T07:45:22.110Z,91.10
2022-08-21T07:47:54.239Z,90.70
2022-08-21T07:50:25.924Z,90.00
2022-08-21T07:52:54.206Z,90.90
2022-08-21T07:55:23.613Z,91.80
2022-08-21T07:57:52.080Z,89.70
2022-08-21T08:00:29.615Z,86.40
2022-08-21T08:02:58.633Z,86.30
2022-08-21T08:05:30.085Z,87.30
2022-08-21T08:07:58.694Z,83.10
2022-08-21T08:10:27.424Z,87.30
2022-08-21T08:12:56.447Z,90.10
2022-08-21T08:15:28.833Z,89.70
2022-08-21T08:17:58.161Z,86.90
2022-08-21T08:20:28.002Z,87.80
2022-08-21T08:22:57.442Z,88.10
2022-08-21T08:25:27.456Z,86.00
2022-08-21T08:27:55.697Z,84.00
2022-08-21T08:30:26.538Z,86.70
2022-08-21T08:32:58.304Z,85.00
2022-08-21T08:35:26.599Z,85.10
2022-08-21T08:37:55.495Z,83.60
2022-08-21T08:40:33.067Z,81.80
2022-08-21T08:43:01.927Z,75.70
2022-08-21T08:45:34.280Z,77.80
2022-08-21T08:48:06.847Z,80.70
2022-08-21T08:50:45.578Z,80.00
2022-08-21T08:53:17.782Z,76.90
2022-08-21T08:55:47.191Z,73.20
2022-08-21T08:58:21.124Z,77.40
2022-08-21T09:00:54.004Z,80.40
2022-08-21T09:03:24.281Z,78.20
2022-08-21T09:05:59.807Z,79.70
2022-08-21T09:08:41.896Z,82.90
2022-08-21T09:11:15.454Z,81.20
2022-08-21T09:13:52.830Z,80.80
2022-08-21T09:16:32.957Z,78.80
2022-08-21T09:19:09.944Z,80.50
2022-08-21T09:21:47.883Z,81.30
2022-08-21T09:24:33.529Z,77.00
2022-08-21T09:27:08.790Z,71.00
2022-08-21T09:29:40.279Z,70.80
2022-08-21T09:32:18.783Z,89.40
2022-08-21T09:34:59.294Z,68.20
2022-08-21T09:37:29.863Z,66.10
2022-08-21T09:39:59.509Z,67.30
2022-08-21T09:42:33.031Z,64.20
2022-08-21T09:45:12.793Z,63.10
2022-08-21T09:47:42.484Z,61.60
2022-08-21T09:50:13.544Z,68.20
2022-08-21T09:52:52.909Z,67.40
2022-08-21T09:55:42.460Z,63.20
2022-08-21T09:58:12.430Z,65.90
2022-08-21T10:00:40.816Z,65.30
2022-08-21T10:03:19.774Z,68.30
2022-08-21T10:05:57.860Z,64.80
2022-08-21T10:08:29.339Z,63.30
2022-08-21T10:11:03.284Z,64.40
2022-08-21T10:13:49.191Z,65.00
2022-08-21T10:16:32.843Z,63.00
2022-08-21T10:19:14.692Z,62.90
2022-08-21T10:21:57.934Z,62.50
2022-08-21T10:24:33.493Z,81.60
2022-08-21T10:27:16.533Z,61.20
2022-08-21T10:29:54.149Z,59.70
2022-08-21T10:32:38.129Z,60.00
2022-08-21T10:35:15.038Z,60.80
2022-08-21T10:37:54.165Z,61.40
2022-08-21T10:40:31.235Z,60.90
2022-08-21T10:43:10.790Z,60.20
2022-08-21T10:45:51.172Z,58.00
2022-08-21T10:48:30.061Z,58.10
2022-08-21T10:51:07.791Z,57.90
2022-08-21T10:53:47.110Z,59.50
2022-08-21T10:56:19.917Z,59.20
2022-08-21T10:59:06.976Z,59.60
2022-08-21T11:01:40.122Z,58.70
2022-08-21T11:04:14.702Z,59.30
2022-08-21T11:06:48.539Z,60.80
2022-08-21T11:09:19.580Z,62.30
2022-08-21T11:12:10.939Z,59.50
2022-08-21T11:14:50.583Z,58.60
2022-08-21T11:17:24.413Z,60.00
2022-08-21T11:19:56.833Z,59.90
2022-08-21T11:22:35.518Z,76.60
2022-08-21T11:25:11.533Z,58.60
2022-08-21T11:27:45.793Z,59.20
2022-08-21T11:30:14.630Z,60.70
2022-08-21T11:33:00.173Z,62.60
2022-08-21T11:35:35.899Z,62.30
2022-08-21T11:38:28.992Z,64.40
2022-08-21T11:41:18.722Z,64.80
2022-08-21T11:43:49.426Z,67.80
2022-08-21T11:46:27.122Z,70.10
2022-08-21T11:49:07.996Z,68.90
2022-08-21T11:51:41.023Z,68.40
2022-08-21T11:54:18.990Z,67.30
2022-08-21T11:56:52.303Z,66.80
2022-08-21T11:59:24.264Z,69.70
2022-08-21T12:01:54.101Z,69.70
2022-08-21T12:04:28.630Z,70.40
2022-08-21T12:06:57.351Z,68.50
2022-08-21T12:09:35.310Z,71.20
2022-08-21T12:12:07.801Z,66.10
2022-08-21T12:14:42.032Z,63.80
2022-08-21T12:17:20.442Z,61.90
2022-08-21T12:20:00.010Z,61.10
2022-08-21T12:22:39.883Z,61.20
2022-08-21T12:25:21.489Z,62.60
2022-08-21T12:27:52.787Z,63.40
2022-08-21T12:30:27.185Z,64.50
2022-08-21T12:33:01.263Z,64.40
2022-08-21T12:35:35.695Z,65.20
2022-08-21T12:38:10.396Z,64.40
2022-08-21T12:40:44.446Z,64.20
2022-08-21T12:43:17.687Z,62.70
2022-08-21T12:45:48.991Z,64.70
2022-08-21T12:48:25.046Z,65.00
2022-08-21T12:50:55.198Z,65.60
2022-08-21T12:53:31.612Z,67.30
2022-08-21T12:56:04.722Z,64.10
2022-08-21T12:58:33.975Z,62.60
2022-08-21T13:01:05.741Z,61.30
2022-08-21T13:03:37.237Z,62.40
2022-08-21T13:06:06.335Z,63.80
2022-08-21T13:08:41.663Z,83.10
2022-08-21T13:11:16.233Z,64.50
2022-08-21T13:13:50.234Z,65.60
2022-08-21T13:16:26.215Z,65.70
2022-08-21T13:18:59.621Z,64.60
2022-08-21T13:21:32.156Z,64.40
2022-08-21T13:24:42.285Z,64.20
2022-08-21T13:27:23.306Z,63.40
2022-08-21T13:30:07.842Z,62.20
2022-08-21T13:32:39.230Z,62.30
2022-08-21T13:35:19.099Z,63.60
2022-08-21T13:37:49.149Z,61.80
2022-08-21T13:40:21.899Z,61.30
2022-08-21T13:42:52.050Z,61.70
2022-08-21T13:45:27.271Z,64.10
2022-08-21T13:47:56.955Z,61.20
2022-08-21T13:50:27.957Z,62.30
2022-08-21T13:53:06.717Z,59.30
2022-08-21T13:55:40.766Z,57.40
2022-08-21T13:58:11.626Z,56.20
2022-08-21T14:00:48.479Z,56.60
2022-08-21T14:03:29.785Z,55.10
2022-08-21T14:06:00.217Z,56.30
2022-08-21T14:08:35.266Z,58.10
2022-08-21T14:11:06.147Z,54.00
2022-08-21T14:13:41.538Z,55.50
2022-08-21T14:16:20.131Z,54.30
2022-08-21T14:18:50.861Z,55.80
2022-08-21T14:21:31.914Z,58.30
2022-08-21T14:24:10.138Z,58.10
2022-08-21T14:26:46.050Z,59.90
2022-08-21T14:29:17.780Z,59.80
2022-08-21T14:31:54.912Z,79.50
2022-08-21T14:34:24.362Z,59.80
2022-08-21T14:36:52.886Z,64.30
2022-08-21T14:39:21.293Z,61.50
2022-08-21T14:41:50.017Z,63.90
2022-08-21T14:44:20.813Z,60.70
2022-08-21T14:46:56.261Z,59.80
2022-08-21T14:49:27.468Z,59.90
2022-08-21T14:51:58.237Z,57.00
2022-08-21T14:54:31.057Z,59.90
2022-08-21T14:57:02.598Z,58.10
2022-08-21T14:59:33.683Z,58.10
2022-08-21T15:02:02.318Z,55.90
2022-08-21T15:04:30.408Z,57.80
2022-08-21T15:06:58.635Z,59.50
2022-08-21T15:09:26.824Z,58.20
2022-08-21T15:11:57.179Z,59.00
2022-08-21T15:14:27.846Z,54.30
2022-08-21T15:16:57.459Z,54.00
2022-08-21T15:19:25.624Z,54.60
2022-08-21T15:21:53.934Z,56.10
2022-08-21T15:24:22.086Z,56.90
2022-08-21T15:26:50.983Z,58.70
2022-08-21T15:29:22.568Z,56.70
2022-08-21T15:31:55.876Z,56.40
2022-08-21T15:34:28.249Z,55.10
2022-08-21T15:36:57.421Z,56.50
2022-08-21T15:39:31.605Z,56.80
2022-08-21T15:42:11.144Z,55.90
2022-08-21T15:44:40.863Z,55.60
2022-08-21T15:47:10.410Z,54.90
2022-08-21T15:49:39.942Z,54.60
2022-08-21T15:52:08.138Z,56.80
2022-08-21T15:54:36.310Z,55.70
2022-08-21T15:57:04.684Z,56.70
2022-08-21T15:59:40.373Z,54.90
2022-08-21T16:02:09.812Z,53.40
2022-08-21T16:04:39.294Z,53.20
2022-08-21T16:07:09.678Z,53.90
2022-08-21T16:09:38.390Z,53.80
2022-08-21T16:12:07.684Z,53.40
2022-08-21T16:14:38.234Z,52.20
2022-08-21T16:17:06.944Z,52.20
2022-08-21T16:19:35.706Z,53.40
2022-08-21T16:22:05.673Z,53.60
2022-08-21T16:24:34.174Z,51.90
2022-08-21T16:27:02.694Z,52.40
2022-08-21T16:29:36.293Z,51.80
2022-08-21T16:32:06.163Z,51.10
2022-08-21T16:34:34.551Z,50.90
2022-08-21T16:37:04.397Z,51.00
2022-08-21T16:39:32.787Z,50.90
2022-08-21T16:42:01.220Z,52.30
2022-08-21T16:44:30.130Z,52.80
2022-08-21T16:46:59.767Z,52.60
2022-08-21T16:49:28.342Z,53.80
2022-08-21T16:51:56.494Z,51.40
2022-08-21T16:54:26.125Z,52.80
2022-08-21T16:56:54.522Z,53.20
2022-08-21T16:59:22.768Z,52.90
2022-08-21T17:01:51.335Z,53.60
2022-08-21T17:04:20.922Z,50.70
2022-08-21T17:06:49.343Z,55.40
2022-08-21T17:09:17.480Z,50.90
2022-08-21T17:11:50.369Z,50.30
2022-08-21T17:14:21.993Z,65.20
2022-08-21T17:16:55.322Z,49.80
2022-08-21T17:19:24.039Z,48.40
2022-08-21T17:21:52.202Z,47.50
2022-08-21T17:24:20.868Z,49.70
2022-08-21T17:26:51.009Z,49.50
2022-08-21T17:29:21.628Z,46.50
2022-08-21T17:31:49.728Z,45.70
2022-08-21T17:34:17.972Z,50.20
2022-08-21T17:36:46.493Z,49.10
2022-08-21T17:39:22.140Z,47.70
2022-08-21T17:42:07.218Z,48.80
2022-08-21T17:44:38.242Z,46.50
2022-08-21T17:47:07.863Z,46.10
2022-08-21T17:49:36.166Z,45.10
2022-08-21T17:52:05.120Z,45.40
2022-08-21T17:54:33.231Z,43.80
2022-08-21T17:57:03.248Z,44.20
2022-08-21T17:59:31.559Z,43.40
2022-08-21T18:02:01.629Z,42.70
2022-08-21T18:04:30.121Z,43.70
2022-08-21T18:06:58.686Z,40.30
2022-08-21T18:09:28.176Z,55.70
2022-08-21T18:11:58.053Z,41.20
2022-08-21T18:14:31.164Z,39.00
2022-08-21T18:17:00.377Z,38.80
2022-08-21T18:19:28.807Z,38.50
2022-08-21T18:22:01.505Z,39.60
2022-08-21T18:24:32.131Z,38.90
2022-08-21T18:27:00.370Z,39.10
2022-08-21T18:29:30.653Z,40.60
2022-08-21T18:31:58.910Z,38.80
2022-08-21T18:34:31.761Z,38.30
2022-08-21T18:36:59.971Z,36.30
2022-08-21T18:39:37.132Z,37.50
2022-08-21T18:42:10.142Z,36.20
2022-08-21T18:44:41.213Z,35.50
2022-08-21T18:47:14.418Z,34.50
2022-08-21T18:49:42.711Z,35.80
2022-08-21T18:52:20.158Z,35.10
2022-08-21T18:54:49.843Z,35.00
2022-08-21T18:57:20.971Z,35.10
2022-08-21T18:59:50.684Z,33.00
2022-08-21T19:02:19.237Z,35.30
2022-08-21T19:04:48.207Z,33.40
2022-08-21T19:07:19.785Z,32.90
2022-08-21T19:10:07.518Z,32.20
2022-08-21T19:12:37.549Z,34.10
2022-08-21T19:15:12.948Z,32.50
2022-08-21T19:17:42.621Z,32.20
2022-08-21T19:20:25.449Z,31.80
2022-08-21T19:22:55.387Z,45.70
2022-08-21T19:25:33.760Z,30.10
2022-08-21T19:28:03.975Z,30.00
2022-08-21T19:30:45.704Z,30.00
2022-08-21T19:33:23.265Z,29.90
2022-08-21T19:35:52.618Z,29.50
2022-08-21T19:38:21.649Z,30.30
2022-08-21T19:40:50.410Z,29.10
2022-08-21T19:43:22.491Z,30.00
2022-08-21T19:45:56.365Z,29.20
2022-08-21T19:48:25.176Z,28.60
2022-08-21T19:50:54.486Z,28.50
2022-08-21T19:53:23.127Z,28.60
2022-08-21T19:55:51.255Z,28.00
2022-08-21T19:58:29.393Z,28.40
2022-08-21T20:00:58.936Z,26.30
2022-08-21T20:03:27.126Z,27.60
2022-08-21T20:05:55.367Z,28.10
2022-08-21T20:08:28.037Z,28.20
2022-08-21T20:10:58.235Z,26.00
2022-08-21T20:13:32.623Z,26.10
2022-08-21T20:16:05.710Z,25.50
2022-08-21T20:18:35.217Z,25.50
2022-08-21T20:21:04.352Z,25.60
2022-08-21T20:23:34.097Z,24.80
2022-08-21T20:26:02.463Z,25.90
2022-08-21T20:28:34.636Z,25.20
2022-08-21T20:31:04.982Z,23.20
2022-08-21T20:33:37.795Z,24.10
2022-08-21T20:36:06.508Z,24.80
2022-08-21T20:38:34.703Z,24.90
2022-08-21T20:41:03.242Z,24.90
2022-08-21T20:43:33.296Z,24.70
2022-08-21T20:46:03.129Z,23.60
2022-08-21T20:48:49.609Z,23.50
2022-08-21T20:51:24.537Z,23.00
2022-08-21T20:53:58.470Z,22.00
2022-08-21T20:56:34.244Z,22.10
2022-08-21T20:59:10.116Z,22.00
2022-08-21T21:01:40.160Z,22.00
2022-08-21T21:04:19.560Z,22.70
2022-08-21T21:06:50.109Z,22.70
2022-08-21T21:09:32.593Z,22.90
2022-08-21T21:12:04.839Z,22.40
2022-08-21T21:14:40.713Z,22.90
2022-08-21T21:17:17.343Z,23.10
2022-08-21T21:19:51.416Z,22.10
2022-08-21T21:22:23.315Z,22.50
2022-08-21T21:24:58.004Z,22.60
2022-08-21T21:27:34.813Z,22.20
2022-08-21T21:30:12.191Z,22.60
2022-08-21T21:32:43.920Z,22.30
2022-08-21T21:35:15.283Z,23.60
2022-08-21T21:37:48.200Z,21.40
2022-08-21T21:40:34.080Z,22.00
2022-08-21T21:43:11.300Z,21.40
2022-08-21T21:45:51.125Z,20.90
2022-08-21T21:48:36.856Z,21.40
2022-08-21T21:51:25.281Z,21.00
2022-08-21T21:54:04.021Z,20.90
2022-08-21T21:56:40.590Z,20.60
2022-08-21T22:02:30.991Z,19.20
2022-08-21T22:05:07.590Z,19.40
2022-08-21T22:07:46.016Z,20.00
2022-08-21T22:10:30.658Z,19.40
2022-08-21T22:13:26.273Z,19.00
2022-08-21T22:15:55.684Z,19.70
2022-08-21T22:18:28.868Z,19.70
2022-08-21T22:21:03.880Z,29.50
2022-08-21T22:23:35.275Z,17.50
2022-08-21T22:26:07.467Z,17.70
2022-08-21T22:28:39.175Z,18.30
2022-08-21T22:31:18.277Z,17.30
2022-08-21T22:34:02.895Z,16.90
2022-08-21T22:36:35.775Z,16.30
2022-08-21T22:39:08.314Z,16.80
2022-08-21T22:41:42.198Z,17.00
2022-08-21T22:44:21.148Z,17.90
2022-08-21T22:46:55.439Z,17.80
2022-08-21T22:49:35.950Z,17.90
2022-08-21T22:52:11.922Z,17.30
2022-08-21T22:54:43.610Z,17.20
2022-08-21T22:57:22.968Z,18.20
2022-08-21T22:59:57.345Z,18.30
2022-08-21T23:02:35.508Z,18.00
2022-08-21T23:05:16.685Z,18.10
2022-08-21T23:07:49.742Z,18.10
2022-08-21T23:10:26.331Z,18.40
2022-08-21T23:13:00.230Z,18.50
2022-08-21T23:15:39.753Z,17.30
2022-08-21T23:18:16.079Z,17.30
2022-08-21T23:20:56.271Z,17.90
2022-08-21T23:23:29.372Z,17.30
2022-08-21T23:29:11.260Z,16.80
2022-08-21T23:31:47.422Z,16.60
2022-08-21T23:34:25.574Z,17.30
2022-08-21T23:37:41.144Z,17.70
2022-08-21T23:40:41.058Z,16.30
2022-08-21T23:43:37.404Z,15.90
2022-08-21T23:46:37.264Z,16.00
2022-08-21T23:52:15.055Z,15.90
2022-08-21T23:54:55.962Z,26.50
2022-08-21T23:57:41.805Z,15.60
